createdAt,value
2022-11-04T00:00:26.852Z,13.37
2022-11-04T00:02:58.369Z,13.37
2022-11-04T00:05:26.733Z,12.97
2022-11-04T00:08:13.585Z,14.70
2022-11-04T00:10:58.825Z,15.97
2022-11-04T00:13:26.929Z,15.30
2022-11-04T00:16:12.630Z,15.33
2022-11-04T00:18:40.926Z,17.37
2022-11-04T00:21:26.737Z,14.77
2022-11-04T00:24:12.316Z,13.13
2022-11-04T00:26:57.523Z,10.77
2022-11-04T00:29:25.584Z,11.17
2022-11-04T00:32:11.044Z,10.60
2022-11-04T00:34:38.981Z,11.97
2022-11-04T00:37:07.495Z,13.63
2022-11-04T00:39:35.799Z,11.97
2022-11-04T00:42:04.572Z,12.50
2022-11-04T00:44:32.476Z,15.03
2022-11-04T00:47:00.816Z,12.00
2022-11-04T00:49:29.397Z,11.73
2022-11-04T00:51:57.887Z,11.60
2022-11-04T00:54:26.187Z,9.77
2022-11-04T00:56:55.123Z,13.40
2022-11-04T00:59:23.543Z,13.63
2022-11-04T01:01:52.523Z,9.63
2022-11-04T01:04:20.949Z,14.00
2022-11-04T01:06:49.396Z,13.53
2022-11-04T01:09:17.750Z,9.60
2022-11-04T01:11:46.066Z,13.20
2022-11-04T01:14:14.972Z,14.27
2022-11-04T01:16:43.526Z,11.77
2022-11-04T01:19:12.454Z,11.13
2022-11-04T01:21:40.761Z,11.67
2022-11-04T01:24:09.252Z,9.90
2022-11-04T01:26:37.851Z,9.70
2022-11-04T01:29:06.142Z,14.97
2022-11-04T01:31:34.610Z,10.03
2022-11-04T01:34:02.975Z,9.93
2022-11-04T01:36:31.315Z,8.33
2022-11-04T01:39:00.000Z,10.47
2022-11-04T01:41:34.375Z,12.33
2022-11-04T02:21:40.351Z,9.93
2022-11-04T02:24:45.350Z,9.47
2022-11-04T02:27:43.748Z,10.27
2022-11-04T02:30:13.015Z,7.73
2022-11-04T02:33:37.173Z,10.90
2022-11-04T02:36:28.080Z,8.20
2022-11-04T02:39:06.510Z,7.87
2022-11-04T02:41:46.870Z,8.10
2022-11-04T02:44:35.315Z,7.87
2022-11-04T02:47:22.601Z,8.47
2022-11-04T02:50:00.297Z,12.37
2022-11-04T02:53:04.535Z,11.80
2022-11-04T02:55:44.780Z,9.67
2022-11-04T02:58:23.000Z,8.00
2022-11-04T03:00:53.804Z,10.23
2022-11-04T03:03:30.356Z,9.40
2022-11-04T03:06:01.120Z,8.33
2022-11-04T03:08:36.246Z,10.30
2022-11-04T03:11:12.957Z,10.97
2022-11-04T03:14:07.337Z,9.17
2022-11-04T03:16:41.813Z,10.13
2022-11-04T03:19:30.790Z,10.23
2022-11-04T03:22:17.633Z,8.47
2022-11-04T03:24:46.929Z,8.33
2022-11-04T03:27:15.263Z,9.10
2022-11-04T03:30:09.644Z,10.17
2022-11-04T03:32:50.610Z,7.83
2022-11-04T03:35:19.496Z,8.80
2022-11-04T03:37:49.717Z,7.90
2022-11-04T03:40:19.493Z,10.90
2022-11-04T03:42:58.592Z,10.50
2022-11-04T03:45:27.289Z,13.67
2022-11-04T03:47:55.893Z,10.97
2022-11-04T03:50:44.214Z,8.43
2022-11-04T03:53:14.842Z,13.67
2022-11-04T03:56:08.255Z,9.13
2022-11-04T03:59:13.524Z,10.17
2022-11-04T04:01:56.224Z,8.80
2022-11-04T04:04:45.584Z,9.93
2022-11-04T04:07:20.470Z,10.30
2022-11-04T04:10:38.579Z,10.77
2022-11-04T04:13:35.496Z,11.37
2022-11-04T04:16:22.088Z,9.90
2022-11-04T04:18:57.540Z,13.33
2022-11-04T04:21:53.280Z,11.77
2022-11-04T04:24:45.169Z,12.00
2022-11-04T04:27:33.221Z,12.43
2022-11-04T04:30:09.690Z,12.63
2022-11-04T04:32:57.295Z,11.30
2022-11-04T04:35:45.216Z,12.80
2022-11-04T04:38:38.629Z,11.73
2022-11-04T04:41:39.862Z,13.03
2022-11-04T04:44:37.801Z,11.67
2022-11-04T04:47:07.269Z,10.00
2022-11-04T04:49:36.023Z,13.10
2022-11-04T04:52:08.389Z,9.83
2022-11-04T04:54:36.778Z,9.63
2022-11-04T04:57:05.267Z,11.53
2022-11-04T04:59:33.669Z,10.90
2022-11-04T05:02:02.256Z,11.50
2022-11-04T05:04:30.837Z,12.53
2022-11-04T05:06:59.372Z,15.47
2022-11-04T05:09:27.765Z,10.87
2022-11-04T05:11:56.136Z,9.70
2022-11-04T05:14:24.549Z,10.17
2022-11-04T05:16:52.872Z,7.63
2022-11-04T05:19:21.418Z,11.17
2022-11-04T05:21:49.825Z,10.60
2022-11-04T05:24:18.202Z,10.10
2022-11-04T05:26:46.559Z,12.00
2022-11-04T05:31:48.328Z,12.63
2022-11-04T05:34:16.800Z,12.23
2022-11-04T05:36:44.803Z,11.90
2022-11-04T05:39:15.238Z,10.23
2022-11-04T05:41:43.590Z,10.37
2022-11-04T05:44:12.640Z,8.43
2022-11-04T05:46:41.183Z,9.87
2022-11-04T05:49:10.969Z,11.60
2022-11-04T05:51:39.751Z,11.23
2022-11-04T05:54:09.408Z,9.97
2022-11-04T05:56:37.968Z,12.00
2022-11-04T05:59:06.339Z,9.87
2022-11-04T06:01:38.104Z,10.07
2022-11-04T06:04:07.640Z,10.40
2022-11-04T06:06:38.977Z,9.37
2022-11-04T06:09:07.643Z,10.17
2022-11-04T06:11:37.444Z,11.50
2022-11-04T06:14:06.169Z,11.97
2022-11-04T06:16:34.680Z,11.33
2022-11-04T06:19:06.084Z,10.77
2022-11-04T06:21:38.270Z,11.90
2022-11-04T06:24:06.482Z,11.80
2022-11-04T06:26:34.995Z,9.70
2022-11-04T06:29:03.387Z,8.83
2022-11-04T06:31:31.763Z,11.30
2022-11-04T06:34:00.100Z,10.40
2022-11-04T06:36:28.285Z,9.13
2022-11-04T06:39:01.495Z,9.40
2022-11-04T06:41:33.083Z,10.33
2022-11-04T06:44:01.496Z,11.03
2022-11-04T06:46:43.603Z,10.40
2022-11-04T06:49:15.611Z,9.77
2022-11-04T06:51:44.184Z,9.40
2022-11-04T06:54:13.155Z,11.50
2022-11-04T06:56:42.220Z,10.00
2022-11-04T06:59:17.109Z,10.13
2022-11-04T07:01:45.546Z,9.40
2022-11-04T07:04:14.370Z,8.97
2022-11-04T07:06:45.852Z,8.27
2022-11-04T07:09:17.145Z,8.80
2022-11-04T07:11:46.626Z,9.73
2022-11-04T07:14:15.313Z,9.77
2022-11-04T07:16:43.779Z,8.97
2022-11-04T07:19:12.214Z,8.67
2022-11-04T07:21:40.532Z,11.93
2022-11-04T07:24:08.646Z,7.63
2022-11-04T07:26:37.139Z,11.20
2022-11-04T07:29:06.887Z,10.37
2022-11-04T07:31:35.540Z,8.17
2022-11-04T07:34:05.267Z,10.60
2022-11-04T07:36:33.799Z,6.90
2022-11-04T07:39:02.187Z,9.00
2022-11-04T07:41:30.757Z,8.07
2022-11-04T07:44:01.005Z,7.80
2022-11-04T07:46:29.603Z,6.57
2022-11-04T07:48:59.693Z,7.53
2022-11-04T07:51:28.676Z,7.17
2022-11-04T07:53:57.228Z,6.57
2022-11-04T07:56:25.850Z,6.53
2022-11-04T07:58:54.607Z,6.70
2022-11-04T08:01:24.995Z,5.90
2022-11-04T08:03:53.837Z,5.53
2022-11-04T08:06:23.348Z,8.77
2022-11-04T08:08:54.072Z,7.07
2022-11-04T08:11:25.352Z,5.57
2022-11-04T08:13:53.924Z,8.53
2022-11-04T08:16:25.319Z,5.80
2022-11-04T08:19:01.634Z,6.10
2022-11-04T08:21:31.188Z,5.37
2022-11-04T08:23:59.592Z,6.63
2022-11-04T08:26:28.313Z,7.13
2022-11-04T08:28:57.342Z,5.80
2022-11-04T08:31:29.717Z,7.13
2022-11-04T08:33:58.785Z,5.23
2022-11-04T08:36:41.000Z,7.17
2022-11-04T08:39:11.254Z,6.40
2022-11-04T08:41:43.185Z,8.53
2022-11-04T08:44:14.818Z,5.10
2022-11-04T08:46:45.431Z,5.10
2022-11-04T08:49:19.604Z,5.40
2022-11-04T08:51:56.465Z,4.80
2022-11-04T08:54:26.299Z,5.00
2022-11-04T08:56:54.946Z,4.70
2022-11-04T08:59:24.944Z,5.37
2022-11-04T09:01:53.127Z,4.30
2022-11-04T09:04:21.689Z,4.13
2022-11-04T09:06:51.133Z,3.43
2022-11-04T09:09:21.282Z,6.93
2022-11-04T09:11:49.658Z,4.70
2022-11-04T09:14:18.948Z,5.20
2022-11-04T09:16:47.910Z,3.10
2022-11-04T09:19:16.196Z,3.77
2022-11-04T09:21:44.797Z,5.10
2022-11-04T09:24:13.968Z,6.00
2022-11-04T09:26:44.713Z,4.23
2022-11-04T09:29:13.275Z,2.50
2022-11-04T09:31:43.278Z,2.47
2022-11-04T09:34:11.633Z,2.17
2022-11-04T09:36:39.736Z,3.30
2022-11-04T09:39:08.209Z,3.73
2022-11-04T09:41:36.616Z,2.37
2022-11-04T09:45:20.093Z,2.00
2022-11-04T09:47:42.312Z,2.47
2022-11-04T09:50:22.510Z,3.20
2022-11-04T09:53:21.020Z,2.30
2022-11-04T09:56:20.431Z,1.90
2022-11-04T09:58:49.368Z,1.90
2022-11-04T10:01:44.737Z,2.03
2022-11-04T10:04:37.396Z,3.13
2022-11-04T10:07:25.487Z,1.97
2022-11-04T10:10:37.848Z,2.60
2022-11-04T10:13:40.592Z,3.00
2022-11-04T10:16:37.850Z,2.50
2022-11-04T10:19:25.793Z,2.33
2022-11-04T10:22:12.741Z,2.60
2022-11-04T10:25:09.887Z,3.23
2022-11-04T10:27:40.446Z,2.20
2022-11-04T10:30:26.466Z,3.70
2022-11-04T10:33:19.069Z,2.70
2022-11-04T10:35:58.482Z,2.20
2022-11-04T10:38:43.595Z,2.47
2022-11-04T10:41:39.830Z,2.37
2022-11-04T10:44:24.165Z,2.50
2022-11-04T10:47:26.230Z,2.33
2022-11-04T10:53:10.218Z,2.73
2022-11-04T10:55:56.307Z,3.03
2022-11-04T10:58:32.154Z,4.13
2022-11-04T11:01:00.624Z,2.73
2022-11-04T11:03:35.349Z,2.67
2022-11-04T11:06:31.114Z,2.50
2022-11-04T11:09:25.838Z,2.23
2022-11-04T11:11:55.501Z,2.60
2022-11-04T11:14:29.492Z,4.47
2022-11-04T11:17:18.406Z,2.50
2022-11-04T11:20:23.967Z,2.23
2022-11-04T11:22:54.256Z,2.20
2022-11-04T11:25:42.643Z,3.47
2022-11-04T11:28:14.002Z,2.10
2022-11-04T11:30:46.384Z,2.23
2022-11-04T11:33:39.625Z,2.30
2022-11-04T11:36:28.369Z,1.70
2022-11-04T11:39:06.407Z,4.07
2022-11-04T11:41:53.351Z,2.27
2022-11-04T11:44:32.652Z,2.20
2022-11-04T11:47:07.089Z,2.50
2022-11-04T11:49:38.228Z,2.07
2022-11-04T11:52:29.042Z,2.57
2022-11-04T11:55:11.624Z,2.47
2022-11-04T12:01:08.225Z,2.30
2022-11-04T12:10:48.617Z,2.30
2022-11-04T12:13:35.938Z,3.73
2022-11-04T12:16:15.838Z,2.70
2022-11-04T12:19:04.547Z,3.07
2022-11-04T12:21:46.556Z,2.20
2022-11-04T12:24:47.977Z,2.30
2022-11-04T12:27:39.161Z,2.23
2022-11-04T12:30:29.777Z,2.23
2022-11-04T12:33:23.676Z,2.63
2022-11-04T12:36:42.646Z,12.53
2022-11-04T12:39:30.598Z,5.17
2022-11-04T12:42:31.292Z,2.53
2022-11-04T12:45:44.423Z,1.90
2022-11-04T12:48:36.189Z,2.17
2022-11-04T12:51:43.103Z,2.40
2022-11-04T12:54:41.654Z,2.57
2022-11-04T12:57:40.168Z,2.90
2022-11-04T13:00:14.185Z,3.20
2022-11-04T13:02:42.665Z,2.43
2022-11-04T13:05:23.621Z,3.07
2022-11-04T13:08:01.860Z,2.53
2022-11-04T13:10:50.787Z,3.17
2022-11-04T13:13:24.134Z,2.70
2022-11-04T13:15:59.635Z,2.37
2022-11-04T13:18:32.889Z,3.03
2022-11-04T13:21:11.624Z,3.47
2022-11-04T13:24:00.224Z,2.20
2022-11-04T13:26:29.207Z,2.10
2022-11-04T13:29:13.568Z,2.00
2022-11-04T13:31:57.646Z,3.17
2022-11-04T13:34:50.276Z,4.00
2022-11-04T13:37:46.865Z,2.70
2022-11-04T13:40:30.971Z,2.67
2022-11-04T13:43:19.904Z,2.13
2022-11-04T13:45:57.355Z,3.17
2022-11-04T13:48:33.356Z,1.97
2022-11-04T13:51:07.023Z,1.50
2022-11-04T13:53:48.593Z,2.63
2022-11-04T13:56:41.489Z,2.20
2022-11-04T13:59:28.320Z,2.17
2022-11-04T14:02:15.158Z,2.80
2022-11-04T14:04:45.221Z,7.03
2022-11-04T14:07:18.120Z,1.90
2022-11-04T14:09:53.673Z,1.60
2022-11-04T14:12:31.784Z,3.10
2022-11-04T14:15:13.244Z,1.60
2022-11-04T14:17:41.843Z,2.70
2022-11-04T14:20:27.523Z,2.57
2022-11-04T14:22:59.145Z,1.70
2022-11-04T14:25:38.765Z,2.97
2022-11-04T14:28:15.551Z,2.93
2022-11-04T14:30:55.014Z,2.60
2022-11-04T14:33:40.731Z,2.40
2022-11-04T14:36:23.437Z,1.73
2022-11-04T14:39:17.219Z,1.73
2022-11-04T14:42:06.788Z,2.40
2022-11-04T14:44:50.037Z,3.07
2022-11-04T14:47:29.191Z,2.00
2022-11-04T14:50:00.161Z,2.27
2022-11-04T14:52:47.375Z,1.60
2022-11-04T14:55:18.900Z,1.93
2022-11-04T14:57:56.268Z,2.10
2022-11-04T15:00:52.054Z,2.73
2022-11-04T15:06:13.832Z,7.20
2022-11-04T15:08:42.996Z,8.20
2022-11-04T15:11:17.931Z,7.13
2022-11-04T15:13:58.871Z,7.47
2022-11-04T15:16:30.046Z,6.77
2022-11-04T15:19:00.634Z,7.17
2022-11-04T15:21:29.373Z,6.97
2022-11-04T15:23:57.864Z,6.73
2022-11-04T15:26:29.857Z,7.10
2022-11-04T15:29:05.195Z,6.03
2022-11-04T15:31:35.813Z,6.77
2022-11-04T15:34:13.148Z,5.57
2022-11-04T15:36:43.963Z,4.80
2022-11-04T15:39:24.839Z,5.30
2022-11-04T15:42:16.587Z,3.77
2022-11-04T15:44:54.992Z,4.00
2022-11-04T15:47:28.452Z,4.87
2022-11-04T15:50:17.406Z,5.50
2022-11-04T15:52:56.052Z,3.80
2022-11-04T15:55:27.672Z,3.97
2022-11-04T15:57:57.413Z,3.70
2022-11-04T16:00:29.094Z,3.10
2022-11-04T16:03:00.477Z,2.97
2022-11-04T16:05:37.773Z,3.60
2022-11-04T16:08:24.985Z,3.93
2022-11-04T16:11:15.373Z,5.73
2022-11-04T16:13:44.387Z,5.63
2022-11-04T16:16:30.669Z,3.93
2022-11-04T16:19:00.445Z,4.00
2022-11-04T16:21:32.592Z,3.43
2022-11-04T16:24:02.136Z,3.43
2022-11-04T16:26:37.551Z,3.33
2022-11-04T16:29:21.973Z,4.77
2022-11-04T16:32:27.019Z,6.97
2022-11-04T16:35:04.698Z,8.97
2022-11-04T16:37:33.401Z,12.63
2022-11-04T16:40:04.225Z,13.07
2022-11-04T16:42:32.575Z,12.70
2022-11-04T16:45:04.223Z,11.90
2022-11-04T16:47:34.435Z,10.73
2022-11-04T16:50:03.739Z,8.73
2022-11-04T16:52:32.269Z,6.83
2022-11-04T16:55:02.451Z,6.87
2022-11-04T16:57:31.195Z,5.17
2022-11-04T16:59:59.764Z,4.80
2022-11-04T17:02:37.483Z,3.27
2022-11-04T17:05:06.927Z,3.37
2022-11-04T17:07:52.170Z,3.97
2022-11-04T17:10:29.896Z,9.17
2022-11-04T17:12:58.282Z,5.13
2022-11-04T17:15:26.634Z,6.20
2022-11-04T17:17:55.064Z,7.70
2022-11-04T17:20:23.710Z,7.43
2022-11-04T17:22:52.995Z,5.60
2022-11-04T17:25:26.453Z,5.00
2022-11-04T17:27:57.971Z,5.10
2022-11-04T17:30:26.746Z,5.50
2022-11-04T17:32:55.385Z,8.77
2022-11-04T17:35:23.917Z,4.07
2022-11-04T17:37:56.002Z,7.20
2022-11-04T17:40:25.105Z,9.37
2022-11-04T17:43:12.600Z,6.43
2022-11-04T17:45:45.702Z,5.87
2022-11-04T17:48:14.370Z,5.17
2022-11-04T17:50:42.842Z,5.80
2022-11-04T17:53:11.862Z,5.77
2022-11-04T17:55:41.536Z,5.73
2022-11-04T17:58:09.960Z,5.90
2022-11-04T18:00:38.354Z,7.10
2022-11-04T18:03:09.029Z,6.53
2022-11-04T18:05:37.891Z,8.40
2022-11-04T18:08:06.458Z,8.57
2022-11-04T18:10:34.485Z,6.13
2022-11-04T18:13:01.850Z,7.00
2022-11-04T18:15:30.379Z,4.83
2022-11-04T18:17:58.377Z,5.83
2022-11-04T18:20:26.906Z,7.00
2022-11-04T18:22:55.369Z,7.17
2022-11-04T18:25:27.479Z,8.27
2022-11-04T18:27:55.829Z,11.20
2022-11-04T18:30:24.114Z,8.87
2022-11-04T18:32:52.711Z,11.40
2022-11-04T18:35:21.009Z,10.10
2022-11-04T18:37:48.941Z,11.00
2022-11-04T18:40:17.879Z,8.33
2022-11-04T18:42:46.323Z,6.23
2022-11-04T18:45:14.973Z,7.90
2022-11-04T18:47:43.282Z,8.53
2022-11-04T18:50:11.893Z,8.77
2022-11-04T18:52:40.420Z,7.93
2022-11-04T18:55:09.472Z,9.60
2022-11-04T18:57:37.766Z,9.20
2022-11-04T19:00:10.569Z,7.40
2022-11-04T19:02:43.561Z,7.60
2022-11-04T19:05:12.767Z,6.97
2022-11-04T19:07:42.052Z,7.00
2022-11-04T19:10:11.116Z,5.50
2022-11-04T19:12:56.934Z,7.10
2022-11-04T19:15:25.700Z,6.93
2022-11-04T19:17:54.279Z,6.53
2022-11-04T19:20:23.922Z,6.33
2022-11-04T19:22:52.297Z,6.63
2022-11-04T19:25:20.757Z,6.40
2022-11-04T19:28:05.313Z,10.37
2022-11-04T19:30:37.796Z,5.97
2022-11-04T19:33:06.151Z,11.17
2022-11-04T19:35:34.554Z,11.70
2022-11-04T19:38:02.873Z,7.97
2022-11-04T19:40:31.171Z,8.63
2022-11-04T19:43:10.669Z,11.70
2022-11-04T19:45:44.188Z,7.73
2022-11-04T19:48:14.015Z,7.63
2022-11-04T19:50:49.080Z,6.93
2022-11-04T19:53:18.914Z,10.00
2022-11-04T19:55:54.084Z,8.83
2022-11-04T19:58:23.708Z,8.23
2022-11-04T20:00:52.021Z,9.47
2022-11-04T20:03:21.577Z,9.70
2022-11-04T20:05:50.084Z,10.73
2022-11-04T20:08:19.690Z,10.07
2022-11-04T20:10:48.013Z,9.93
2022-11-04T20:13:37.559Z,10.53
2022-11-04T20:16:21.966Z,11.77
2022-11-04T20:18:54.133Z,11.67
2022-11-04T20:21:22.945Z,12.20
2022-11-04T20:23:51.615Z,13.20
2022-11-04T20:26:24.416Z,13.70
2022-11-04T20:28:54.471Z,12.00
2022-11-04T20:31:29.804Z,12.57
2022-11-04T20:33:59.186Z,12.23
2022-11-04T20:36:32.568Z,12.17
2022-11-04T20:39:03.654Z,12.57
2022-11-04T20:41:32.112Z,12.20
2022-11-04T20:44:00.858Z,11.07
2022-11-04T20:46:33.549Z,9.70
2022-11-04T20:49:03.916Z,11.67
2022-11-04T20:51:35.627Z,10.40
2022-11-04T20:54:07.151Z,9.47
2022-11-04T20:56:38.744Z,9.43
2022-11-04T20:59:09.547Z,10.60
2022-11-04T21:01:40.683Z,9.67
2022-11-04T21:04:18.552Z,10.83
2022-11-04T21:06:51.574Z,10.87
2022-11-04T21:09:22.399Z,10.07
2022-11-04T21:11:51.533Z,10.77
2022-11-04T21:14:20.570Z,11.30
2022-11-04T21:16:49.570Z,8.50
2022-11-04T21:19:17.921Z,11.20
2022-11-04T21:21:47.684Z,9.47
2022-11-04T21:24:17.452Z,12.17
2022-11-04T21:26:46.742Z,9.73
2022-11-04T21:29:19.653Z,8.37
2022-11-04T21:31:49.646Z,11.37
2022-11-04T21:34:19.283Z,8.30
2022-11-04T21:36:50.987Z,10.90
2022-11-04T21:39:20.473Z,9.90
2022-11-04T21:41:49.037Z,12.07
2022-11-04T21:44:17.499Z,10.43
2022-11-04T21:46:45.648Z,8.83
2022-11-04T21:49:14.717Z,11.20
2022-11-04T21:51:43.253Z,9.10
2022-11-04T21:54:11.981Z,11.10
2022-11-04T21:56:40.419Z,9.37
2022-11-04T21:59:10.068Z,10.50
2022-11-04T22:01:40.377Z,9.60
2022-11-04T22:04:08.986Z,11.73
2022-11-04T22:06:37.468Z,11.00
2022-11-04T22:09:08.023Z,10.90
2022-11-04T22:11:39.424Z,9.97
2022-11-04T22:14:09.388Z,9.73
2022-11-04T22:16:40.469Z,12.57
2022-11-04T22:19:13.346Z,12.50
2022-11-04T22:21:43.811Z,9.63
2022-11-04T22:24:18.735Z,9.83
2022-11-04T22:26:47.705Z,10.67
2022-11-04T22:29:16.214Z,10.60
2022-11-04T22:31:44.887Z,8.30
2022-11-04T22:34:13.436Z,9.27
2022-11-04T22:36:42.042Z,9.77
2022-11-04T22:39:16.924Z,10.23
2022-11-04T22:41:46.465Z,11.70
2022-11-04T22:44:14.928Z,11.67
2022-11-04T22:46:43.490Z,9.67
2022-11-04T22:49:11.904Z,10.90
2022-11-04T22:51:40.197Z,8.63
2022-11-04T22:54:10.319Z,10.20
2022-11-04T22:56:41.536Z,9.40
2022-11-04T22:59:11.153Z,8.33
2022-11-04T23:01:39.907Z,11.00
2022-11-04T23:04:11.943Z,11.00
2022-11-04T23:06:40.740Z,8.87
2022-11-04T23:09:09.411Z,9.70
2022-11-04T23:11:55.109Z,9.83
2022-11-04T23:14:49.595Z,8.57
2022-11-04T23:17:41.089Z,9.77
2022-11-04T23:20:16.284Z,12.80
2022-11-04T23:23:04.785Z,9.83
2022-11-04T23:25:33.459Z,11.57
2022-11-04T23:28:19.216Z,9.40
2022-11-04T23:30:53.824Z,11.67
2022-11-04T23:33:42.757Z,10.43
2022-11-04T23:36:29.579Z,10.07
2022-11-04T23:39:00.754Z,10.07
2022-11-04T23:41:46.782Z,16.63
2022-11-04T23:44:29.051Z,9.77
2022-11-04T23:47:14.876Z,11.60
2022-11-04T23:50:04.340Z,8.93
2022-11-04T23:52:51.153Z,10.63
2022-11-04T23:55:36.954Z,12.17
2022-11-04T23:58:22.811Z,10.03
